Germantown, Ohio
Current Conditions -  °F | °C
As of 1:35 PM on Wednesday 26 Nov 2014 (Local Time) from KMWO Reporting Station
Overcast Overcast  
Wind Chill: 37°   Ceiling: 3200
Heat Index: 37°   Visibility: 10mi
Dew Point: 27°   Wind: 0mph
Humidity: 67%   Direction: NA
Pressure: 30.09"   Gusts: NA
Location:  39.63°N, 84.37°W
Report Text: KMWO 261835Z AUTO 00000KT 10SM SCT021 OVC032 03/M03 A3009 RMK AO2 T00261029
Loading
Personal Weather Stations






























Interactive Weather Map New forecast layout! Learn more

10-Day Weather Forecast

Advertisements
Track Severe Weather on mobile